Catàleg de serveis del Meteocat
Campanya meteocatpedra

Dades de l'estació automàtica la Tosa d'Alp 2500

?
?
Resum diari 21:00 TU
Dades diàries de l'estació meteorològica
Temperatura mitjana 6.1 °C
Temperatura màxima 7.8 °C 9:40 TU
Temperatura mínima 3.9 °C 4:42 TU
Humitat relativa mitjana 98%
Ratxa màxima del vent (10 m) 59.8 km/h - 176º 8:06 TU
Irradiació solar global 6.3 MJ/m2

El tram horari està expressat en Temps Universal (TU). Cal sumar una hora en horari d'hivern i dues en horari d'estiu per passar a l'hora oficial.

la Tosa d'Alp 2500

Metadades estació meteorol´gica
Municipi Alp
Comarca Cerdanya
Altitud 2478 m
Data alta 04.09.2014
Estat actual Operativa
Dades de període
Període
TU
TM
°C
TX
°C
TN
°C
HRM
%
VVM (10 m)
km/h
DVM (10 m)
graus
VVX (10 m)
km/h
RS
W/m2
00:00 - 00:30 5.5 5.7 5.5 97 32.0 155 46.8 0
00:30 - 01:00 5.7 5.8 5.6 91 29.9 153 43.2 0
01:00 - 01:30 5.8 6.0 5.6 89 31.0 158 46.4 0
01:30 - 02:00 5.7 5.8 5.5 89 28.1 151 43.2 0
02:00 - 02:30 5.5 5.6 5.4 92 35.6 153 54.0 0
02:30 - 03:00 5.1 5.5 4.6 94 32.8 151 51.8 0
03:00 - 03:30 4.5 4.6 4.5 96 27.7 144 43.9 0
03:30 - 04:00 4.2 4.5 4.0 88 27.0 141 43.9 0
04:00 - 04:30 4.1 4.1 4.0 98 24.5 141 38.9 0
04:30 - 05:00 4.2 4.5 3.9 100 28.4 142 41.4 0
05:00 - 05:30 5.4 6.0 4.6 100 35.6 152 56.9 0
05:30 - 06:00 6.2 6.5 5.9 100 36.0 160 59.4 2
06:00 - 06:30 6.6 6.7 6.3 100 35.6 167 58.0 8
06:30 - 07:00 6.6 6.8 6.4 100 31.7 172 51.1 19
07:00 - 07:30 6.8 6.9 6.6 100 30.6 170 49.0 28
07:30 - 08:00 6.8 7.0 6.8 100 27.7 168 50.0 21
08:00 - 08:30 6.8 7.1 6.6 100 40.7 185 59.8 69
08:30 - 09:00 6.3 6.7 5.6 100 29.9 183 44.6 90
09:00 - 09:30 6.8 7.5 6.1 90 31.0 220 48.2 178
09:30 - 10:00 7.5 7.8 6.8 86 32.8 191 45.4 514
10:00 - 10:30 6.7 6.9 6.5 100 20.9 168 39.2 94
10:30 - 11:00 6.4 6.5 6.3 100 25.2 169 43.2 85
11:00 - 11:30 6.2 6.5 6.0 100 18.7 171 36.4 260
11:30 - 12:00 6.5 6.9 6.2 100 17.3 193 32.0 328
12:00 - 12:30 6.6 6.7 6.4 100 21.6 195 33.8 201
12:30 - 13:00 6.6 7.0 6.3 100 21.6 196 36.0 314
13:00 - 13:30 6.7 6.9 6.4 100 25.6 195 43.2 209
13:30 - 14:00 6.8 7.1 6.5 100 23.0 197 40.7 269
14:00 - 14:30 6.9 7.2 6.7 100 18.4 205 29.5 302
14:30 - 15:00 6.9 7.2 6.7 100 22.7 179 38.2 74
15:00 - 15:30 6.9 7.1 6.7 100 23.8 178 35.6 67
15:30 - 16:00 6.7 6.9 6.5 100 24.5 194 36.7 44
16:00 - 16:30 6.5 6.8 6.2 100 24.5 189 37.1 120
16:30 - 17:00 6.9 7.1 6.3 99 19.1 224 31.7 168
17:00 - 17:30 6.6 6.9 6.3 99 16.9 218 25.9 50
17:30 - 18:00 6.3 6.8 5.9 100 18.7 219 32.0 5
18:00 - 18:30 6.2 6.4 5.9 99 20.2 217 31.7 0
18:30 - 19:00 6.0 6.2 5.9 99 23.0 217 39.6 0
19:00 - 19:30 6.1 6.2 5.9 98 21.2 219 31.0 0
19:30 - 20:00 5.8 6.0 5.7 100 20.9 207 28.8 0
20:00 - 20:30 5.8 5.8 5.7 100 24.1 209 35.3 0
20:30 - 21:00 5.7 5.8 5.5 100 22.3 217 34.9 0
21:00 - 21:30 5.5 5.6 5.4 100 21.6 221 31.0 0

Les dades en taronja només han passat un control de qualitat automàtic. Resta pendent la seva validació definitiva.